sensor_id;sensor_type;location;lat;lon;timestamp;P1;durP1;ratioP1;P2;durP2;ratioP2
43678;SDS011;29279;50.858;4.392;2023-04-25T00:01:06;26.33;;;6.18;;
43678;SDS011;29279;50.858;4.392;2023-04-25T00:03:33;34.05;;;5.75;;
43678;SDS011;29279;50.858;4.392;2023-04-25T00:06:00;32.80;;;5.68;;
43678;SDS011;29279;50.858;4.392;2023-04-25T00:08:31;20.35;;;4.65;;
43678;SDS011;29279;50.858;4.392;2023-04-25T00:10:57;27.40;;;5.50;;
43678;SDS011;29279;50.858;4.392;2023-04-25T00:13:23;24.65;;;5.25;;
43678;SDS011;29279;50.858;4.392;2023-04-25T00:15:50;22.13;;;5.20;;
43678;SDS011;29279;50.858;4.392;2023-04-25T00:18:16;24.17;;;4.72;;
43678;SDS011;29279;50.858;4.392;2023-04-25T00:20:43;23.95;;;4.95;;
43678;SDS011;29279;50.858;4.392;2023-04-25T00:23:11;30.45;;;5.68;;
43678;SDS011;29279;50.858;4.392;2023-04-25T00:25:42;29.20;;;4.90;;
43678;SDS011;29279;50.858;4.392;2023-04-25T00:28:09;20.02;;;4.70;;
43678;SDS011;29279;50.858;4.392;2023-04-25T00:30:35;30.35;;;5.65;;
43678;SDS011;29279;50.858;4.392;2023-04-25T00:33:00;31.58;;;6.22;;
43678;SDS011;29279;50.858;4.392;2023-04-25T00:35:26;28.42;;;4.82;;
43678;SDS011;29279;50.858;4.392;2023-04-25T00:37:52;32.08;;;5.78;;
43678;SDS011;29279;50.858;4.392;2023-04-25T00:40:19;22.02;;;4.85;;
43678;SDS011;29279;50.858;4.392;2023-04-25T00:42:46;22.67;;;5.20;;
43678;SDS011;29279;50.858;4.392;2023-04-25T00:45:13;29.70;;;4.88;;
43678;SDS011;29279;50.858;4.392;2023-04-25T00:47:42;29.92;;;6.00;;
43678;SDS011;29279;50.858;4.392;2023-04-25T00:50:08;31.75;;;5.82;;
43678;SDS011;29279;50.858;4.392;2023-04-25T00:52:35;32.28;;;5.70;;
43678;SDS011;29279;50.858;4.392;2023-04-25T00:55:02;26.90;;;5.28;;
43678;SDS011;29279;50.858;4.392;2023-04-25T00:57:28;30.88;;;5.72;;
43678;SDS011;29279;50.858;4.392;2023-04-25T00:59:55;28.35;;;5.82;;
43678;SDS011;29279;50.858;4.392;2023-04-25T01:02:21;29.40;;;6.53;;
43678;SDS011;29279;50.858;4.392;2023-04-25T01:04:47;30.00;;;5.78;;
43678;SDS011;29279;50.858;4.392;2023-04-25T01:07:13;27.30;;;6.00;;
43678;SDS011;29279;50.858;4.392;2023-04-25T01:09:40;36.38;;;6.32;;
43678;SDS011;29279;50.858;4.392;2023-04-25T01:12:06;31.02;;;5.57;;
43678;SDS011;29279;50.858;4.392;2023-04-25T01:14:32;35.30;;;6.28;;
43678;SDS011;29279;50.858;4.392;2023-04-25T01:16:58;31.88;;;6.20;;
43678;SDS011;29279;50.858;4.392;2023-04-25T01:19:24;27.67;;;6.55;;
43678;SDS011;29279;50.858;4.392;2023-04-25T01:21:50;26.20;;;5.20;;
43678;SDS011;29279;50.858;4.392;2023-04-25T01:24:16;33.10;;;6.10;;
43678;SDS011;29279;50.858;4.392;2023-04-25T01:26:45;29.45;;;6.38;;
43678;SDS011;29279;50.858;4.392;2023-04-25T01:29:18;34.97;;;7.10;;
43678;SDS011;29279;50.858;4.392;2023-04-25T01:31:45;35.00;;;6.68;;
43678;SDS011;29279;50.858;4.392;2023-04-25T01:34:11;30.65;;;6.82;;
43678;SDS011;29279;50.858;4.392;2023-04-25T01:36:37;32.95;;;6.43;;
43678;SDS011;29279;50.858;4.392;2023-04-25T01:39:03;24.63;;;5.82;;
43678;SDS011;29279;50.858;4.392;2023-04-25T01:41:29;29.98;;;5.60;;
43678;SDS011;29279;50.858;4.392;2023-04-25T01:43:56;32.58;;;5.85;;
43678;SDS011;29279;50.858;4.392;2023-04-25T01:46:22;24.17;;;6.25;;
43678;SDS011;29279;50.858;4.392;2023-04-25T01:48:47;23.45;;;6.50;;
43678;SDS011;29279;50.858;4.392;2023-04-25T01:51:13;33.03;;;6.13;;
43678;SDS011;29279;50.858;4.392;2023-04-25T01:53:40;20.85;;;5.32;;
43678;SDS011;29279;50.858;4.392;2023-04-25T01:56:06;23.67;;;5.75;;
43678;SDS011;29279;50.858;4.392;2023-04-25T01:58:32;32.80;;;6.07;;
43678;SDS011;29279;50.858;4.392;2023-04-25T02:00:58;26.27;;;5.78;;
43678;SDS011;29279;50.858;4.392;2023-04-25T02:03:23;36.08;;;7.03;;
43678;SDS011;29279;50.858;4.392;2023-04-25T02:05:49;35.45;;;6.38;;
43678;SDS011;29279;50.858;4.392;2023-04-25T02:08:16;27.05;;;6.32;;
43678;SDS011;29279;50.858;4.392;2023-04-25T02:10:42;29.98;;;7.18;;
43678;SDS011;29279;50.858;4.392;2023-04-25T02:13:07;23.65;;;6.22;;
43678;SDS011;29279;50.858;4.392;2023-04-25T02:15:33;40.83;;;7.03;;
43678;SDS011;29279;50.858;4.392;2023-04-25T02:17:59;33.13;;;6.65;;
43678;SDS011;29279;50.858;4.392;2023-04-25T02:20:28;26.20;;;6.55;;
43678;SDS011;29279;50.858;4.392;2023-04-25T02:22:55;46.78;;;7.22;;
43678;SDS011;29279;50.858;4.392;2023-04-25T02:25:20;29.00;;;7.22;;
43678;SDS011;29279;50.858;4.392;2023-04-25T02:27:48;39.38;;;8.35;;
43678;SDS011;29279;50.858;4.392;2023-04-25T02:30:15;29.80;;;6.78;;
43678;SDS011;29279;50.858;4.392;2023-04-25T02:32:40;43.75;;;7.18;;
43678;SDS011;29279;50.858;4.392;2023-04-25T02:35:06;34.47;;;6.40;;
43678;SDS011;29279;50.858;4.392;2023-04-25T02:37:33;29.70;;;6.65;;
43678;SDS011;29279;50.858;4.392;2023-04-25T02:40:00;34.17;;;7.68;;
43678;SDS011;29279;50.858;4.392;2023-04-25T02:42:26;31.52;;;6.90;;
43678;SDS011;29279;50.858;4.392;2023-04-25T02:44:52;44.00;;;8.43;;
43678;SDS011;29279;50.858;4.392;2023-04-25T02:47:18;37.33;;;6.65;;
43678;SDS011;29279;50.858;4.392;2023-04-25T02:49:44;31.98;;;7.15;;
43678;SDS011;29279;50.858;4.392;2023-04-25T02:52:10;26.00;;;6.50;;
43678;SDS011;29279;50.858;4.392;2023-04-25T02:54:36;30.75;;;6.60;;
43678;SDS011;29279;50.858;4.392;2023-04-25T02:57:02;38.22;;;7.70;;
43678;SDS011;29279;50.858;4.392;2023-04-25T02:59:31;34.10;;;6.63;;
43678;SDS011;29279;50.858;4.392;2023-04-25T03:01:57;30.88;;;6.75;;
43678;SDS011;29279;50.858;4.392;2023-04-25T03:04:22;34.60;;;6.65;;
43678;SDS011;29279;50.858;4.392;2023-04-25T03:06:49;30.40;;;7.38;;
43678;SDS011;29279;50.858;4.392;2023-04-25T03:09:15;33.50;;;6.88;;
43678;SDS011;29279;50.858;4.392;2023-04-25T03:11:41;36.58;;;6.85;;
43678;SDS011;29279;50.858;4.392;2023-04-25T03:14:07;32.08;;;6.68;;
43678;SDS011;29279;50.858;4.392;2023-04-25T03:16:32;18.45;;;5.78;;
43678;SDS011;29279;50.858;4.392;2023-04-25T03:18:58;32.72;;;6.90;;
43678;SDS011;29279;50.858;4.392;2023-04-25T03:21:25;32.22;;;7.20;;
43678;SDS011;29279;50.858;4.392;2023-04-25T03:23:51;29.27;;;6.00;;
43678;SDS011;29279;50.858;4.392;2023-04-25T03:26:17;29.23;;;6.25;;
43678;SDS011;29279;50.858;4.392;2023-04-25T03:28:42;30.38;;;6.03;;
43678;SDS011;29279;50.858;4.392;2023-04-25T03:31:08;35.58;;;8.15;;
43678;SDS011;29279;50.858;4.392;2023-04-25T03:33:34;36.05;;;7.15;;
43678;SDS011;29279;50.858;4.392;2023-04-25T03:36:00;33.67;;;6.88;;
43678;SDS011;29279;50.858;4.392;2023-04-25T03:38:25;32.50;;;6.47;;
43678;SDS011;29279;50.858;4.392;2023-04-25T03:40:51;24.95;;;5.57;;
43678;SDS011;29279;50.858;4.392;2023-04-25T03:43:17;37.28;;;7.68;;
43678;SDS011;29279;50.858;4.392;2023-04-25T03:45:43;38.85;;;7.90;;
43678;SDS011;29279;50.858;4.392;2023-04-25T03:48:09;36.10;;;7.45;;
43678;SDS011;29279;50.858;4.392;2023-04-25T03:50:36;30.92;;;6.68;;
43678;SDS011;29279;50.858;4.392;2023-04-25T03:53:02;31.90;;;6.90;;
43678;SDS011;29279;50.858;4.392;2023-04-25T03:55:27;25.70;;;5.40;;
43678;SDS011;29279;50.858;4.392;2023-04-25T03:57:53;29.88;;;6.15;;
43678;SDS011;29279;50.858;4.392;2023-04-25T04:00:22;28.25;;;5.53;;
43678;SDS011;29279;50.858;4.392;2023-04-25T04:02:47;38.08;;;7.43;;
43678;SDS011;29279;50.858;4.392;2023-04-25T04:05:13;32.90;;;5.32;;
43678;SDS011;29279;50.858;4.392;2023-04-25T04:07:39;28.02;;;5.47;;
43678;SDS011;29279;50.858;4.392;2023-04-25T04:10:10;23.92;;;4.82;;
43678;SDS011;29279;50.858;4.392;2023-04-25T04:12:37;29.83;;;5.47;;
43678;SDS011;29279;50.858;4.392;2023-04-25T04:15:03;31.40;;;6.72;;
43678;SDS011;29279;50.858;4.392;2023-04-25T04:17:30;28.42;;;5.90;;
43678;SDS011;29279;50.858;4.392;2023-04-25T04:19:55;25.13;;;6.38;;
43678;SDS011;29279;50.858;4.392;2023-04-25T04:22:21;31.00;;;7.32;;
43678;SDS011;29279;50.858;4.392;2023-04-25T04:24:47;28.73;;;7.03;;
43678;SDS011;29279;50.858;4.392;2023-04-25T04:27:14;32.38;;;6.47;;
43678;SDS011;29279;50.858;4.392;2023-04-25T04:29:42;35.78;;;7.18;;
43678;SDS011;29279;50.858;4.392;2023-04-25T04:32:08;34.95;;;7.28;;
43678;SDS011;29279;50.858;4.392;2023-04-25T04:34:34;25.15;;;5.68;;
43678;SDS011;29279;50.858;4.392;2023-04-25T04:37:00;28.52;;;7.03;;
43678;SDS011;29279;50.858;4.392;2023-04-25T04:39:26;26.77;;;6.18;;
43678;SDS011;29279;50.858;4.392;2023-04-25T04:41:51;28.48;;;6.43;;
43678;SDS011;29279;50.858;4.392;2023-04-25T04:44:17;28.33;;;6.95;;
43678;SDS011;29279;50.858;4.392;2023-04-25T04:46:43;27.83;;;6.43;;
43678;SDS011;29279;50.858;4.392;2023-04-25T04:49:09;23.48;;;6.57;;
43678;SDS011;29279;50.858;4.392;2023-04-25T04:54:09;34.97;;;7.53;;
43678;SDS011;29279;50.858;4.392;2023-04-25T04:56:35;25.70;;;6.47;;
43678;SDS011;29279;50.858;4.392;2023-04-25T04:59:01;22.80;;;6.68;;
43678;SDS011;29279;50.858;4.392;2023-04-25T05:01:27;21.02;;;5.65;;
43678;SDS011;29279;50.858;4.392;2023-04-25T05:03:55;25.83;;;6.10;;
43678;SDS011;29279;50.858;4.392;2023-04-25T05:06:25;22.23;;;5.13;;
43678;SDS011;29279;50.858;4.392;2023-04-25T05:08:54;28.85;;;6.07;;
43678;SDS011;29279;50.858;4.392;2023-04-25T05:11:21;26.15;;;5.43;;
43678;SDS011;29279;50.858;4.392;2023-04-25T05:13:48;34.10;;;6.72;;
43678;SDS011;29279;50.858;4.392;2023-04-25T05:16:14;30.48;;;6.53;;
43678;SDS011;29279;50.858;4.392;2023-04-25T05:18:40;32.47;;;5.70;;
43678;SDS011;29279;50.858;4.392;2023-04-25T05:21:07;19.05;;;5.63;;
43678;SDS011;29279;50.858;4.392;2023-04-25T05:23:33;29.65;;;6.22;;
43678;SDS011;29279;50.858;4.392;2023-04-25T05:25:59;27.80;;;6.72;;
43678;SDS011;29279;50.858;4.392;2023-04-25T05:28:24;23.27;;;6.50;;
43678;SDS011;29279;50.858;4.392;2023-04-25T05:30:50;23.92;;;6.47;;
43678;SDS011;29279;50.858;4.392;2023-04-25T05:33:16;27.85;;;6.07;;
43678;SDS011;29279;50.858;4.392;2023-04-25T05:35:42;22.48;;;5.57;;
43678;SDS011;29279;50.858;4.392;2023-04-25T05:38:08;23.27;;;5.45;;
43678;SDS011;29279;50.858;4.392;2023-04-25T05:40:34;30.02;;;5.28;;
43678;SDS011;29279;50.858;4.392;2023-04-25T05:42:59;23.35;;;4.50;;
43678;SDS011;29279;50.858;4.392;2023-04-25T05:45:25;20.83;;;5.18;;
43678;SDS011;29279;50.858;4.392;2023-04-25T05:47:51;27.88;;;6.57;;
43678;SDS011;29279;50.858;4.392;2023-04-25T05:50:17;20.83;;;5.20;;
43678;SDS011;29279;50.858;4.392;2023-04-25T05:52:42;24.00;;;5.43;;
43678;SDS011;29279;50.858;4.392;2023-04-25T05:55:08;23.75;;;4.63;;
43678;SDS011;29279;50.858;4.392;2023-04-25T05:57:34;26.45;;;4.63;;
43678;SDS011;29279;50.858;4.392;2023-04-25T06:00:00;24.60;;;5.50;;
43678;SDS011;29279;50.858;4.392;2023-04-25T06:02:26;18.88;;;5.53;;
43678;SDS011;29279;50.858;4.392;2023-04-25T06:04:52;22.45;;;5.10;;
43678;SDS011;29279;50.858;4.392;2023-04-25T06:07:18;26.17;;;6.28;;
43678;SDS011;29279;50.858;4.392;2023-04-25T06:09:45;35.20;;;6.05;;
43678;SDS011;29279;50.858;4.392;2023-04-25T06:12:10;32.33;;;6.75;;
43678;SDS011;29279;50.858;4.392;2023-04-25T06:14:36;29.63;;;7.15;;
43678;SDS011;29279;50.858;4.392;2023-04-25T06:17:03;33.28;;;6.90;;
43678;SDS011;29279;50.858;4.392;2023-04-25T06:19:33;27.90;;;6.78;;
43678;SDS011;29279;50.858;4.392;2023-04-25T06:22:00;25.98;;;7.57;;
43678;SDS011;29279;50.858;4.392;2023-04-25T06:24:26;35.83;;;7.57;;
43678;SDS011;29279;50.858;4.392;2023-04-25T06:26:51;33.83;;;7.95;;
43678;SDS011;29279;50.858;4.392;2023-04-25T06:29:17;27.75;;;6.97;;
43678;SDS011;29279;50.858;4.392;2023-04-25T06:31:43;21.63;;;6.72;;
43678;SDS011;29279;50.858;4.392;2023-04-25T06:34:09;36.13;;;8.35;;
43678;SDS011;29279;50.858;4.392;2023-04-25T06:36:35;21.88;;;7.47;;
43678;SDS011;29279;50.858;4.392;2023-04-25T06:39:01;24.00;;;6.72;;
43678;SDS011;29279;50.858;4.392;2023-04-25T06:41:27;27.20;;;7.15;;
43678;SDS011;29279;50.858;4.392;2023-04-25T06:43:53;25.38;;;5.47;;
43678;SDS011;29279;50.858;4.392;2023-04-25T06:46:18;22.13;;;5.32;;
43678;SDS011;29279;50.858;4.392;2023-04-25T06:48:44;21.63;;;5.10;;
43678;SDS011;29279;50.858;4.392;2023-04-25T06:51:10;28.30;;;5.68;;
43678;SDS011;29279;50.858;4.392;2023-04-25T06:53:35;21.23;;;5.40;;
43678;SDS011;29279;50.858;4.392;2023-04-25T06:56:01;27.30;;;6.40;;
43678;SDS011;29279;50.858;4.392;2023-04-25T06:58:28;23.92;;;4.85;;
43678;SDS011;29279;50.858;4.392;2023-04-25T07:00:53;31.85;;;5.32;;
43678;SDS011;29279;50.858;4.392;2023-04-25T07:03:19;21.52;;;4.32;;
43678;SDS011;29279;50.858;4.392;2023-04-25T07:05:45;17.58;;;4.78;;
43678;SDS011;29279;50.858;4.392;2023-04-25T07:08:11;16.45;;;4.10;;
43678;SDS011;29279;50.858;4.392;2023-04-25T07:10:37;28.02;;;4.93;;
43678;SDS011;29279;50.858;4.392;2023-04-25T07:13:02;19.67;;;4.35;;
43678;SDS011;29279;50.858;4.392;2023-04-25T07:15:28;24.83;;;4.60;;
43678;SDS011;29279;50.858;4.392;2023-04-25T07:17:54;26.05;;;5.45;;
43678;SDS011;29279;50.858;4.392;2023-04-25T07:20:20;32.63;;;4.88;;
43678;SDS011;29279;50.858;4.392;2023-04-25T07:22:45;27.38;;;4.40;;
43678;SDS011;29279;50.858;4.392;2023-04-25T07:25:11;22.00;;;3.65;;
43678;SDS011;29279;50.858;4.392;2023-04-25T07:27:37;26.70;;;4.18;;
43678;SDS011;29279;50.858;4.392;2023-04-25T07:30:04;19.30;;;3.83;;
43678;SDS011;29279;50.858;4.392;2023-04-25T07:32:30;21.73;;;4.30;;
43678;SDS011;29279;50.858;4.392;2023-04-25T07:34:56;21.13;;;4.50;;
43678;SDS011;29279;50.858;4.392;2023-04-25T07:37:21;22.90;;;4.45;;
43678;SDS011;29279;50.858;4.392;2023-04-25T07:39:47;19.73;;;3.72;;
43678;SDS011;29279;50.858;4.392;2023-04-25T07:42:13;23.23;;;3.50;;
43678;SDS011;29279;50.858;4.392;2023-04-25T07:44:39;29.52;;;5.40;;
43678;SDS011;29279;50.858;4.392;2023-04-25T07:47:06;18.98;;;3.90;;
43678;SDS011;29279;50.858;4.392;2023-04-25T07:49:32;17.23;;;3.53;;
43678;SDS011;29279;50.858;4.392;2023-04-25T07:52:02;17.42;;;4.00;;
43678;SDS011;29279;50.858;4.392;2023-04-25T07:54:28;18.33;;;4.03;;
43678;SDS011;29279;50.858;4.392;2023-04-25T07:56:54;14.45;;;4.10;;
43678;SDS011;29279;50.858;4.392;2023-04-25T07:59:20;24.42;;;4.13;;
43678;SDS011;29279;50.858;4.392;2023-04-25T08:01:46;22.83;;;4.60;;
43678;SDS011;29279;50.858;4.392;2023-04-25T08:04:12;19.27;;;3.60;;
43678;SDS011;29279;50.858;4.392;2023-04-25T08:06:38;14.40;;;4.80;;
43678;SDS011;29279;50.858;4.392;2023-04-25T08:09:05;22.52;;;3.70;;
43678;SDS011;29279;50.858;4.392;2023-04-25T08:11:31;19.17;;;3.97;;
43678;SDS011;29279;50.858;4.392;2023-04-25T08:13:57;22.45;;;3.83;;
43678;SDS011;29279;50.858;4.392;2023-04-25T08:16:23;18.42;;;3.60;;
43678;SDS011;29279;50.858;4.392;2023-04-25T08:18:49;27.15;;;4.32;;
43678;SDS011;29279;50.858;4.392;2023-04-25T08:21:15;22.38;;;4.03;;
43678;SDS011;29279;50.858;4.392;2023-04-25T08:23:41;20.73;;;4.57;;
43678;SDS011;29279;50.858;4.392;2023-04-25T08:26:07;24.33;;;3.60;;
43678;SDS011;29279;50.858;4.392;2023-04-25T08:28:32;18.90;;;3.70;;
43678;SDS011;29279;50.858;4.392;2023-04-25T08:30:58;25.50;;;3.72;;
43678;SDS011;29279;50.858;4.392;2023-04-25T08:33:24;19.45;;;3.05;;
43678;SDS011;29279;50.858;4.392;2023-04-25T08:35:50;17.60;;;3.50;;
43678;SDS011;29279;50.858;4.392;2023-04-25T08:38:16;11.05;;;2.92;;
43678;SDS011;29279;50.858;4.392;2023-04-25T08:40:42;18.10;;;3.38;;
43678;SDS011;29279;50.858;4.392;2023-04-25T08:43:09;18.83;;;3.25;;
43678;SDS011;29279;50.858;4.392;2023-04-25T08:45:40;17.85;;;3.33;;
43678;SDS011;29279;50.858;4.392;2023-04-25T08:48:13;16.30;;;3.40;;
43678;SDS011;29279;50.858;4.392;2023-04-25T08:50:44;16.02;;;3.20;;
43678;SDS011;29279;50.858;4.392;2023-04-25T08:53:15;19.92;;;3.72;;
43678;SDS011;29279;50.858;4.392;2023-04-25T08:55:44;16.58;;;2.63;;
43678;SDS011;29279;50.858;4.392;2023-04-25T08:58:11;20.88;;;2.97;;
43678;SDS011;29279;50.858;4.392;2023-04-25T09:00:38;14.20;;;3.28;;
43678;SDS011;29279;50.858;4.392;2023-04-25T09:03:04;18.38;;;3.10;;
43678;SDS011;29279;50.858;4.392;2023-04-25T09:05:32;15.57;;;2.78;;
43678;SDS011;29279;50.858;4.392;2023-04-25T09:07:58;17.90;;;3.78;;
43678;SDS011;29279;50.858;4.392;2023-04-25T09:10:27;14.75;;;3.25;;
43678;SDS011;29279;50.858;4.392;2023-04-25T09:13:07;18.38;;;3.03;;
43678;SDS011;29279;50.858;4.392;2023-04-25T09:15:47;17.90;;;2.90;;
43678;SDS011;29279;50.858;4.392;2023-04-25T09:20:55;17.05;;;2.85;;
43678;SDS011;29279;50.858;4.392;2023-04-25T09:23:23;12.70;;;2.05;;
43678;SDS011;29279;50.858;4.392;2023-04-25T09:25:49;17.40;;;3.05;;
43678;SDS011;29279;50.858;4.392;2023-04-25T09:28:27;19.08;;;3.20;;
43678;SDS011;29279;50.858;4.392;2023-04-25T09:30:56;17.73;;;3.42;;
43678;SDS011;29279;50.858;4.392;2023-04-25T09:33:29;16.83;;;2.22;;
43678;SDS011;29279;50.858;4.392;2023-04-25T09:38:51;20.23;;;2.40;;
43678;SDS011;29279;50.858;4.392;2023-04-25T09:41:22;11.98;;;2.05;;
43678;SDS011;29279;50.858;4.392;2023-04-25T09:43:48;14.85;;;2.60;;
43678;SDS011;29279;50.858;4.392;2023-04-25T09:46:15;17.05;;;2.70;;
43678;SDS011;29279;50.858;4.392;2023-04-25T09:48:46;9.80;;;2.08;;
43678;SDS011;29279;50.858;4.392;2023-04-25T09:51:14;12.00;;;2.70;;
43678;SDS011;29279;50.858;4.392;2023-04-25T09:53:40;12.98;;;2.45;;
43678;SDS011;29279;50.858;4.392;2023-04-25T09:56:16;13.52;;;2.42;;
43678;SDS011;29279;50.858;4.392;2023-04-25T09:58:43;12.90;;;2.22;;
43678;SDS011;29279;50.858;4.392;2023-04-25T10:01:09;8.15;;;2.35;;
43678;SDS011;29279;50.858;4.392;2023-04-25T10:03:36;12.05;;;3.05;;
43678;SDS011;29279;50.858;4.392;2023-04-25T10:06:08;15.45;;;2.47;;
43678;SDS011;29279;50.858;4.392;2023-04-25T10:08:39;11.35;;;2.33;;
43678;SDS011;29279;50.858;4.392;2023-04-25T10:11:07;10.45;;;2.13;;
43678;SDS011;29279;50.858;4.392;2023-04-25T10:13:34;8.30;;;2.03;;
43678;SDS011;29279;50.858;4.392;2023-04-25T10:16:01;8.60;;;1.95;;
43678;SDS011;29279;50.858;4.392;2023-04-25T10:18:29;9.60;;;2.38;;
43678;SDS011;29279;50.858;4.392;2023-04-25T10:20:56;10.93;;;2.70;;
43678;SDS011;29279;50.858;4.392;2023-04-25T10:23:24;13.10;;;2.50;;
43678;SDS011;29279;50.858;4.392;2023-04-25T10:25:51;7.72;;;2.08;;
43678;SDS011;29279;50.858;4.392;2023-04-25T10:28:18;7.13;;;1.92;;
43678;SDS011;29279;50.858;4.392;2023-04-25T10:31:01;6.82;;;2.30;;
43678;SDS011;29279;50.858;4.392;2023-04-25T10:33:36;11.10;;;2.28;;
43678;SDS011;29279;50.858;4.392;2023-04-25T10:38:35;6.83;;;2.00;;
43678;SDS011;29279;50.858;4.392;2023-04-25T10:41:03;8.57;;;1.90;;
43678;SDS011;29279;50.858;4.392;2023-04-25T10:43:36;7.70;;;1.80;;
43678;SDS011;29279;50.858;4.392;2023-04-25T10:48:55;7.47;;;1.95;;
43678;SDS011;29279;50.858;4.392;2023-04-25T10:51:22;6.63;;;1.70;;
43678;SDS011;29279;50.858;4.392;2023-04-25T10:56:25;13.43;;;1.95;;
43678;SDS011;29279;50.858;4.392;2023-04-25T11:01:39;7.05;;;1.88;;
43678;SDS011;29279;50.858;4.392;2023-04-25T11:04:19;13.27;;;1.85;;
43678;SDS011;29279;50.858;4.392;2023-04-25T11:09:29;14.00;;;2.10;;
43678;SDS011;29279;50.858;4.392;2023-04-25T11:11:58;12.90;;;2.58;;
43678;SDS011;29279;50.858;4.392;2023-04-25T11:14:25;13.57;;;3.20;;
43678;SDS011;29279;50.858;4.392;2023-04-25T11:16:58;14.48;;;2.92;;
43678;SDS011;29279;50.858;4.392;2023-04-25T11:19:25;13.98;;;3.15;;
43678;SDS011;29279;50.858;4.392;2023-04-25T11:21:55;7.38;;;2.17;;
43678;SDS011;29279;50.858;4.392;2023-04-25T11:24:28;13.40;;;2.00;;
43678;SDS011;29279;50.858;4.392;2023-04-25T11:26:55;18.13;;;2.63;;
43678;SDS011;29279;50.858;4.392;2023-04-25T11:29:22;13.43;;;2.55;;
43678;SDS011;29279;50.858;4.392;2023-04-25T11:31:48;19.48;;;2.58;;
43678;SDS011;29279;50.858;4.392;2023-04-25T11:34:17;10.45;;;2.10;;
43678;SDS011;29279;50.858;4.392;2023-04-25T11:36:44;13.88;;;2.63;;
43678;SDS011;29279;50.858;4.392;2023-04-25T11:39:11;9.43;;;2.05;;
43678;SDS011;29279;50.858;4.392;2023-04-25T11:41:37;14.18;;;2.28;;
43678;SDS011;29279;50.858;4.392;2023-04-25T11:44:03;13.27;;;2.00;;
43678;SDS011;29279;50.858;4.392;2023-04-25T11:46:30;6.47;;;1.90;;
43678;SDS011;29279;50.858;4.392;2023-04-25T11:48:58;12.38;;;2.05;;
43678;SDS011;29279;50.858;4.392;2023-04-25T11:51:24;10.25;;;1.73;;
43678;SDS011;29279;50.858;4.392;2023-04-25T11:53:51;11.57;;;1.70;;
43678;SDS011;29279;50.858;4.392;2023-04-25T11:56:17;10.18;;;1.83;;
43678;SDS011;29279;50.858;4.392;2023-04-25T11:58:55;8.05;;;1.88;;
43678;SDS011;29279;50.858;4.392;2023-04-25T12:01:29;7.88;;;1.55;;
43678;SDS011;29279;50.858;4.392;2023-04-25T12:04:09;12.15;;;1.90;;
43678;SDS011;29279;50.858;4.392;2023-04-25T12:06:46;5.25;;;1.58;;
43678;SDS011;29279;50.858;4.392;2023-04-25T12:09:34;6.10;;;1.75;;
43678;SDS011;29279;50.858;4.392;2023-04-25T12:11:59;7.40;;;1.67;;
43678;SDS011;29279;50.858;4.392;2023-04-25T12:14:30;5.38;;;1.98;;
43678;SDS011;29279;50.858;4.392;2023-04-25T12:16:58;10.00;;;1.60;;
43678;SDS011;29279;50.858;4.392;2023-04-25T12:19:25;13.38;;;1.95;;
43678;SDS011;29279;50.858;4.392;2023-04-25T12:21:57;5.63;;;1.50;;
43678;SDS011;29279;50.858;4.392;2023-04-25T12:24:23;6.68;;;1.63;;
43678;SDS011;29279;50.858;4.392;2023-04-25T12:26:51;8.40;;;1.40;;
43678;SDS011;29279;50.858;4.392;2023-04-25T12:29:31;5.45;;;1.27;;
43678;SDS011;29279;50.858;4.392;2023-04-25T12:31:58;4.88;;;1.10;;
43678;SDS011;29279;50.858;4.392;2023-04-25T12:34:24;7.45;;;1.65;;
43678;SDS011;29279;50.858;4.392;2023-04-25T12:36:51;7.43;;;1.30;;
43678;SDS011;29279;50.858;4.392;2023-04-25T12:39:18;3.03;;;1.10;;
43678;SDS011;29279;50.858;4.392;2023-04-25T12:41:48;6.32;;;1.48;;
43678;SDS011;29279;50.858;4.392;2023-04-25T12:44:14;8.15;;;1.25;;
43678;SDS011;29279;50.858;4.392;2023-04-25T12:46:41;5.07;;;1.45;;
43678;SDS011;29279;50.858;4.392;2023-04-25T12:49:07;4.53;;;1.60;;
43678;SDS011;29279;50.858;4.392;2023-04-25T12:51:33;3.92;;;1.27;;
43678;SDS011;29279;50.858;4.392;2023-04-25T12:54:00;6.63;;;1.50;;
43678;SDS011;29279;50.858;4.392;2023-04-25T12:56:26;6.30;;;1.65;;
43678;SDS011;29279;50.858;4.392;2023-04-25T12:58:52;10.80;;;1.65;;
43678;SDS011;29279;50.858;4.392;2023-04-25T13:01:19;7.18;;;1.65;;
43678;SDS011;29279;50.858;4.392;2023-04-25T13:03:48;5.47;;;1.55;;
43678;SDS011;29279;50.858;4.392;2023-04-25T13:06:14;12.02;;;1.95;;
43678;SDS011;29279;50.858;4.392;2023-04-25T13:08:41;5.97;;;1.85;;
43678;SDS011;29279;50.858;4.392;2023-04-25T13:11:07;15.45;;;1.85;;
43678;SDS011;29279;50.858;4.392;2023-04-25T13:13:33;7.00;;;1.77;;
43678;SDS011;29279;50.858;4.392;2023-04-25T13:16:00;8.98;;;1.83;;
43678;SDS011;29279;50.858;4.392;2023-04-25T13:18:27;8.18;;;1.77;;
43678;SDS011;29279;50.858;4.392;2023-04-25T13:20:55;13.18;;;2.15;;
43678;SDS011;29279;50.858;4.392;2023-04-25T13:23:22;4.82;;;1.30;;
43678;SDS011;29279;50.858;4.392;2023-04-25T13:25:48;14.00;;;1.98;;
43678;SDS011;29279;50.858;4.392;2023-04-25T13:28:14;6.85;;;1.77;;
43678;SDS011;29279;50.858;4.392;2023-04-25T13:30:40;7.22;;;1.45;;
43678;SDS011;29279;50.858;4.392;2023-04-25T13:33:06;8.32;;;1.75;;
43678;SDS011;29279;50.858;4.392;2023-04-25T13:35:33;5.82;;;1.75;;
43678;SDS011;29279;50.858;4.392;2023-04-25T13:38:00;10.98;;;1.85;;
43678;SDS011;29279;50.858;4.392;2023-04-25T13:40:26;4.25;;;1.27;;
43678;SDS011;29279;50.858;4.392;2023-04-25T13:42:52;6.18;;;1.55;;
43678;SDS011;29279;50.858;4.392;2023-04-25T13:45:18;5.40;;;1.63;;
43678;SDS011;29279;50.858;4.392;2023-04-25T13:47:45;7.47;;;1.40;;
43678;SDS011;29279;50.858;4.392;2023-04-25T13:50:12;6.05;;;1.67;;
43678;SDS011;29279;50.858;4.392;2023-04-25T13:52:39;9.43;;;1.48;;
43678;SDS011;29279;50.858;4.392;2023-04-25T13:55:05;7.18;;;1.77;;
43678;SDS011;29279;50.858;4.392;2023-04-25T13:57:32;8.30;;;2.05;;
43678;SDS011;29279;50.858;4.392;2023-04-25T13:59:58;7.32;;;1.75;;
43678;SDS011;29279;50.858;4.392;2023-04-25T14:02:24;8.25;;;1.98;;
43678;SDS011;29279;50.858;4.392;2023-04-25T14:04:50;6.90;;;1.85;;
43678;SDS011;29279;50.858;4.392;2023-04-25T14:07:16;8.00;;;2.10;;
43678;SDS011;29279;50.858;4.392;2023-04-25T14:09:44;6.90;;;1.83;;
43678;SDS011;29279;50.858;4.392;2023-04-25T14:12:10;10.15;;;1.75;;
43678;SDS011;29279;50.858;4.392;2023-04-25T14:14:36;5.32;;;1.20;;
43678;SDS011;29279;50.858;4.392;2023-04-25T14:17:02;6.82;;;1.58;;
43678;SDS011;29279;50.858;4.392;2023-04-25T14:19:28;6.93;;;1.55;;
43678;SDS011;29279;50.858;4.392;2023-04-25T14:21:54;7.13;;;1.95;;
43678;SDS011;29279;50.858;4.392;2023-04-25T14:24:20;7.80;;;1.90;;
43678;SDS011;29279;50.858;4.392;2023-04-25T14:26:46;5.65;;;1.38;;
43678;SDS011;29279;50.858;4.392;2023-04-25T14:29:11;6.85;;;1.45;;
43678;SDS011;29279;50.858;4.392;2023-04-25T14:31:37;6.93;;;1.58;;
43678;SDS011;29279;50.858;4.392;2023-04-25T14:34:05;6.85;;;1.65;;
43678;SDS011;29279;50.858;4.392;2023-04-25T14:36:30;5.88;;;1.35;;
43678;SDS011;29279;50.858;4.392;2023-04-25T14:38:57;5.03;;;1.45;;
43678;SDS011;29279;50.858;4.392;2023-04-25T14:41:23;4.72;;;1.48;;
43678;SDS011;29279;50.858;4.392;2023-04-25T14:43:50;7.65;;;1.55;;
43678;SDS011;29279;50.858;4.392;2023-04-25T14:46:16;7.70;;;1.80;;
43678;SDS011;29279;50.858;4.392;2023-04-25T14:48:42;4.22;;;1.08;;
43678;SDS011;29279;50.858;4.392;2023-04-25T14:51:07;9.18;;;1.73;;
43678;SDS011;29279;50.858;4.392;2023-04-25T14:53:33;6.05;;;1.35;;
43678;SDS011;29279;50.858;4.392;2023-04-25T14:55:59;6.95;;;1.25;;
43678;SDS011;29279;50.858;4.392;2023-04-25T14:58:24;9.40;;;1.58;;